Time;durP1;ratioP1;P1;durP2;ratioP2;P2;SDS_P1;SDS_P2;PMS_P1;PMS_P2;Temp;Humidity;BMP_temperature;BMP_pressure;BME280_temperature;BME280_humidity;BME280_pressure;Samples;Min_cycle;Max_cycle;Signal;HPM_P1;HPM_P2
2022/06/09 00:00:45;;;;;;;2.53;1.70;;;;;;;15.12;nan;99923.66;4989088;28;20118;-75
2022/06/09 00:03:19;;;;;;;2.97;1.58;;;;;;;15.12;nan;99931.66;4990003;28;20058;-75
2022/06/09 00:05:45;;;;;;;2.58;1.52;;;;;;;15.13;nan;99934.09;4990518;28;20038;-75
2022/06/09 00:08:11;;;;;;;2.08;1.50;;;;;;;15.15;nan;99939.22;4989573;28;20365;-76
2022/06/09 00:10:42;;;;;;;2.20;1.30;;;;;;;15.15;nan;99939.22;4989895;28;20038;-75
2022/06/09 00:13:07;;;;;;;2.33;1.60;;;;;;;15.16;nan;99940.88;4989757;28;20042;-75
2022/06/09 00:15:33;;;;;;;2.17;1.67;;;;;;;15.14;nan;99943.75;4967375;28;20098;-75
2022/06/09 00:17:58;;;;;;;2.58;1.70;;;;;;;15.14;nan;99943.75;4995172;28;20029;-76
2022/06/09 00:20:24;;;;;;;2.05;1.70;;;;;;;15.16;nan;99949.72;4989787;28;20459;-76
2022/06/09 00:22:49;;;;;;;2.55;1.35;;;;;;;15.16;nan;99944.38;4990460;28;20042;-75
2022/06/09 00:25:15;;;;;;;2.65;1.48;;;;;;;15.16;nan;99952.38;4990670;28;20042;-76
2022/06/09 00:27:41;;;;;;;3.42;1.77;;;;;;;15.16;nan;99949.72;4992693;28;20130;-76
2022/06/09 00:30:08;;;;;;;3.70;1.80;;;;;;;15.15;nan;99953.38;4989724;28;20058;-75
2022/06/09 00:32:34;;;;;;;2.60;1.60;;;;;;;15.14;nan;99956.25;4989311;28;20438;-75
2022/06/09 00:34:59;;;;;;;2.40;1.55;;;;;;;15.11;nan;99957.47;4993759;28;20034;-76
2022/06/09 00:37:24;;;;;;;3.53;1.95;;;;;;;15.07;nan;99957.00;4988717;28;20027;-75
2022/06/09 00:39:49;;;;;;;4.10;1.75;;;;;;;15.08;nan;99957.81;4972868;28;20436;-75
2022/06/09 00:42:16;;;;;;;1.83;1.27;;;;;;;15.09;nan;99959.50;4995747;28;20042;-75
2022/06/09 00:44:43;;;;;;;2.22;1.42;;;;;;;15.05;nan;99966.22;4994862;28;20499;-76
2022/06/09 00:47:19;;;;;;;1.98;1.30;;;;;;;14.98;nan;99963.50;4991655;28;20038;-75
2022/06/09 00:50:15;;;;;;;2.67;1.50;;;;;;;14.93;nan;99957.94;4991530;28;20038;-75
2022/06/09 00:52:45;;;;;;;2.60;1.45;;;;;;;14.91;nan;99970.63;4979022;28;20034;-76
2022/06/09 00:55:15;;;;;;;3.42;1.60;;;;;;;14.89;nan;99967.31;4983359;28;20398;-75
2022/06/09 00:57:48;;;;;;;2.10;1.40;;;;;;;14.91;nan;99977.78;4988480;28;20023;-76
2022/06/09 01:00:19;;;;;;;2.38;1.48;;;;;;;14.93;nan;99987.22;4974555;28;20050;-75
2022/06/09 01:02:45;;;;;;;2.67;1.35;;;;;;;14.93;nan;99975.75;4990853;28;20112;-75
2022/06/09 01:05:13;;;;;;;2.40;1.50;;;;;;;14.91;nan;99973.28;4997290;28;20063;-75
2022/06/09 01:07:43;;;;;;;2.60;1.40;;;;;;;14.88;nan;99980.84;4988656;28;20122;-75
2022/06/09 01:10:08;;;;;;;2.08;1.20;;;;;;;14.79;nan;99977.50;4989405;28;20030;-75
2022/06/09 01:12:41;;;;;;;1.60;1.17;;;;;;;14.74;nan;99985.22;4988127;28;20529;-75
2022/06/09 01:15:18;;;;;;;1.92;1.33;;;;;;;14.68;nan;99983.31;4988671;28;20034;-75
2022/06/09 01:18:19;;;;;;;2.40;1.20;;;;;;;14.60;nan;99984.28;4988530;28;20058;-75
2022/06/09 01:21:09;;;;;;;2.38;1.50;;;;;;;14.54;nan;99977.06;4986283;28;20515;-75
2022/06/09 01:23:59;;;;;;;2.08;1.40;;;;;;;14.49;nan;99979.44;4987873;28;20133;-75
2022/06/09 01:27:12;;;;;;;2.67;1.67;;;;;;;14.43;nan;99978.38;4988681;28;20053;-75
2022/06/09 01:29:54;;;;;;;2.58;1.80;;;;;;;14.37;nan;99989.75;4908568;29;20131;-75
2022/06/09 01:32:26;;;;;;;2.50;1.70;;;;;;;14.34;nan;99990.16;4909121;29;20040;-75
2022/06/09 01:35:18;;;;;;;2.00;1.60;;;;;;;14.29;nan;99980.09;4960748;28;20062;-75
2022/06/09 01:37:47;;;;;;;2.83;1.80;;;;;;;14.26;nan;99985.78;4988632;28;20133;-75
2022/06/09 01:40:16;;;;;;;3.05;1.58;;;;;;;14.25;nan;99981.47;4988744;28;20038;-75
2022/06/09 01:42:52;;;;;;;2.67;1.70;;;;;;;14.23;nan;99983.50;4987374;28;21580;-75
2022/06/09 01:45:26;;;;;;;3.42;1.70;;;;;;;14.19;nan;99988.38;4987140;28;20133;-75
2022/06/09 01:47:59;;;;;;;3.28;1.90;;;;;;;14.17;nan;99984.25;4988215;28;20492;-75
2022/06/09 01:50:52;;;;;;;3.30;1.92;;;;;;;14.15;nan;99989.75;4987687;28;20129;-75
2022/06/09 01:53:30;;;;;;;2.65;1.92;;;;;;;14.12;nan;100000.78;4984703;28;20101;-75
2022/06/09 01:56:00;;;;;;;3.15;2.15;;;;;;;14.09;nan;99995.84;4988986;28;20403;-75
2022/06/09 01:58:31;;;;;;;2.40;1.88;;;;;;;14.06;nan;99998.03;4987230;28;20491;-75
2022/06/09 02:01:00;;;;;;;2.23;1.40;;;;;;;13.99;nan;100006.78;4987908;28;20080;-75
2022/06/09 02:03:31;;;;;;;2.05;1.70;;;;;;;13.97;nan;100007.97;4987779;28;20300;-75
2022/06/09 02:05:59;;;;;;;2.22;1.63;;;;;;;13.96;nan;100003.66;4987056;28;20046;-76
2022/06/09 02:08:26;;;;;;;2.25;1.75;;;;;;;13.95;nan;100004.66;4986101;28;20438;-75
2022/06/09 02:10:57;;;;;;;2.70;1.77;;;;;;;13.92;nan;99997.06;4988271;28;20041;-75
2022/06/09 02:13:29;;;;;;;2.15;1.55;;;;;;;13.89;nan;100005.41;4987751;28;20515;-75
2022/06/09 02:16:00;;;;;;;2.53;1.70;;;;;;;13.87;nan;100010.94;4986972;28;20026;-75
2022/06/09 02:18:28;;;;;;;2.00;1.48;;;;;;;13.84;nan;100011.28;4987926;28;20145;-75
2022/06/09 02:21:02;;;;;;;2.30;1.60;;;;;;;13.85;nan;100006.78;4987060;28;20045;-75
2022/06/09 02:23:28;;;;;;;3.15;1.80;;;;;;;13.85;nan;100010.28;4988733;28;20507;-75
2022/06/09 02:25:54;;;;;;;2.55;2.08;;;;;;;13.86;nan;100017.22;4988013;28;20116;-75
2022/06/09 02:28:19;;;;;;;2.65;1.75;;;;;;;13.86;nan;100009.25;4991344;28;20403;-75
2022/06/09 02:30:46;;;;;;;2.28;1.73;;;;;;;13.84;nan;100011.28;4987523;28;20050;-75
2022/06/09 02:33:12;;;;;;;2.10;1.60;;;;;;;13.81;nan;100017.78;4987518;28;20526;-75
2022/06/09 02:35:37;;;;;;;2.13;1.40;;;;;;;13.78;nan;100025.31;4990795;28;20034;-75
2022/06/09 02:38:04;;;;;;;1.63;1.40;;;;;;;13.77;nan;100028.97;4987459;28;20487;-75
2022/06/09 02:40:31;;;;;;;2.53;1.45;;;;;;;13.76;nan;100038.78;4995380;28;20315;-75
2022/06/09 02:42:57;;;;;;;2.95;1.90;;;;;;;13.78;nan;100031.44;4992940;28;20034;-75
2022/06/09 02:45:23;;;;;;;2.47;1.70;;;;;;;13.83;nan;100033.56;4995705;28;20443;-75
2022/06/09 02:47:49;;;;;;;3.78;2.10;;;;;;;13.90;nan;100033.66;4994618;28;20066;-75
2022/06/09 02:50:15;;;;;;;2.53;1.77;;;;;;;13.97;nan;100040.69;4995761;28;20133;-76
2022/06/09 02:52:41;;;;;;;1.67;1.40;;;;;;;14.13;nan;100036.16;4992532;28;20414;-74
2022/06/09 02:55:09;;;;;;;2.28;1.50;;;;;;;14.11;nan;100033.69;4977378;28;20030;-75
2022/06/09 02:57:35;;;;;;;1.60;1.20;;;;;;;14.11;nan;100033.69;4975151;28;20045;-75
2022/06/09 03:00:00;;;;;;;1.92;1.40;;;;;;;14.15;nan;100034.94;4994698;28;20035;-75
2022/06/09 03:02:25;;;;;;;1.50;1.30;;;;;;;14.34;nan;100036.19;4991378;28;20406;-75
2022/06/09 03:04:51;;;;;;;1.98;1.45;;;;;;;14.33;nan;100041.72;4993866;28;20040;-75
2022/06/09 03:07:16;;;;;;;2.22;1.25;;;;;;;14.34;nan;100036.19;4977153;28;20042;-75
2022/06/09 03:09:41;;;;;;;2.03;1.55;;;;;;;14.37;nan;100037.66;4992347;28;20038;-75
2022/06/09 03:12:09;;;;;;;2.63;1.65;;;;;;;14.39;nan;100040.94;4974213;28;20026;-75
2022/06/09 03:14:35;;;;;;;2.70;1.70;;;;;;;14.38;nan;100047.28;4992577;28;20038;-75
2022/06/09 03:17:00;;;;;;;3.05;1.67;;;;;;;14.37;nan;100046.47;4994692;28;20034;-75
2022/06/09 03:19:26;;;;;;;2.75;1.70;;;;;;;14.38;nan;100053.44;4996834;28;20041;-75
2022/06/09 03:21:51;;;;;;;2.67;1.80;;;;;;;14.39;nan;100051.59;4993606;28;20051;-75
2022/06/09 03:24:17;;;;;;;4.38;1.70;;;;;;;14.40;nan;100055.91;4993545;28;20034;-76
2022/06/09 03:26:42;;;;;;;2.30;1.55;;;;;;;14.42;nan;100053.88;4998710;28;20038;-75
2022/06/09 03:29:07;;;;;;;4.28;2.00;;;;;;;14.41;nan;100055.69;4994406;28;20388;-75
2022/06/09 03:31:33;;;;;;;3.53;1.70;;;;;;;14.41;nan;100065.53;4993130;28;20089;-75
2022/06/09 03:33:58;;;;;;;4.00;1.80;;;;;;;14.41;nan;100054.88;4996297;28;20038;-76
2022/06/09 03:36:24;;;;;;;2.85;1.48;;;;;;;14.40;nan;100059.38;4993751;28;20042;-75
2022/06/09 03:38:49;;;;;;;2.50;1.50;;;;;;;14.38;nan;100065.91;4993687;28;20129;-76
2022/06/09 03:41:15;;;;;;;1.70;1.20;;;;;;;14.34;nan;100064.63;4978084;28;20056;-75
2022/06/09 03:43:41;;;;;;;1.80;1.23;;;;;;;14.28;nan;100060.88;4991956;28;20034;-76
2022/06/09 03:46:07;;;;;;;1.95;1.58;;;;;;;14.23;nan;100061.44;4994008;28;20037;-76
2022/06/09 03:48:33;;;;;;;2.20;1.60;;;;;;;14.20;nan;100064.47;4993645;28;20035;-75
2022/06/09 03:50:58;;;;;;;2.38;1.60;;;;;;;14.14;nan;100070.53;4991462;28;20455;-75
2022/06/09 03:53:24;;;;;;;3.33;1.50;;;;;;;14.10;nan;100074.56;4990959;28;20045;-75
2022/06/09 03:55:49;;;;;;;2.05;1.50;;;;;;;14.04;nan;100072.69;4989258;28;20050;-75
2022/06/09 03:58:14;;;;;;;2.30;1.38;;;;;;;13.99;nan;100072.38;4990491;28;20053;-75
2022/06/09 04:00:39;;;;;;;2.88;1.33;;;;;;;13.91;nan;100068.00;4990478;28;20054;-75
2022/06/09 04:03:06;;;;;;;2.05;1.27;;;;;;;13.85;nan;100071.41;4989564;28;20137;-75
2022/06/09 04:05:32;;;;;;;3.33;1.60;;;;;;;13.81;nan;100081.56;4987931;28;20117;-75
2022/06/09 04:07:59;;;;;;;2.13;1.40;;;;;;;13.78;nan;100075.81;4990901;28;20366;-75
2022/06/09 04:10:31;;;;;;;1.17;1.00;;;;;;;13.76;nan;100072.50;4989784;28;20043;-75
2022/06/09 04:12:57;;;;;;;1.67;1.20;;;;;;;13.72;nan;100072.03;4990899;28;20093;-75
2022/06/09 04:15:22;;;;;;;2.00;1.20;;;;;;;13.73;nan;100076.34;4990130;28;20034;-75
2022/06/09 04:17:48;;;;;;;1.45;1.10;;;;;;;13.73;nan;100081.69;4989740;28;20037;-75
2022/06/09 04:20:16;;;;;;;1.67;0.95;;;;;;;13.75;nan;100082.31;4990294;28;20037;-76
2022/06/09 04:22:42;;;;;;;2.65;1.10;;;;;;;13.79;nan;100088.06;4989953;28;20400;-75
2022/06/09 04:25:08;;;;;;;1.98;1.10;;;;;;;13.81;nan;100084.22;4973025;28;20038;-76
2022/06/09 04:27:34;;;;;;;2.50;1.30;;;;;;;13.86;nan;100081.03;4994118;28;20037;-76
2022/06/09 04:29:59;;;;;;;1.40;1.10;;;;;;;13.89;nan;100085.13;4990763;28;20507;-75
2022/06/09 04:32:24;;;;;;;1.77;1.20;;;;;;;13.92;nan;100087.41;4989646;28;20034;-75
2022/06/09 04:34:50;;;;;;;1.90;1.30;;;;;;;13.95;nan;100089.72;4975798;28;20039;-75
2022/06/09 04:37:16;;;;;;;2.50;1.42;;;;;;;13.96;nan;100094.84;4990072;28;20122;-75
2022/06/09 04:39:41;;;;;;;1.90;1.37;;;;;;;13.96;nan;100099.34;4989201;28;20448;-76
2022/06/09 04:42:07;;;;;;;2.63;1.40;;;;;;;13.97;nan;100109.81;4991217;28;20042;-75
2022/06/09 04:44:32;;;;;;;2.47;1.60;;;;;;;13.97;nan;100114.31;4988532;28;20049;-75
2022/06/09 04:46:58;;;;;;;3.38;1.83;;;;;;;13.98;nan;100118.59;4989887;28;20034;-75
2022/06/09 04:49:23;;;;;;;2.67;1.77;;;;;;;13.99;nan;100121.09;4989524;28;20504;-75
2022/06/09 04:51:48;;;;;;;2.63;1.70;;;;;;;14.02;nan;100128.69;4989267;28;20050;-75
2022/06/09 04:54:13;;;;;;;2.33;1.70;;;;;;;14.08;nan;100129.75;4988876;28;20046;-75
2022/06/09 04:56:39;;;;;;;2.83;1.92;;;;;;;14.23;nan;100133.25;4989037;28;20034;-75
2022/06/09 04:59:04;;;;;;;2.60;1.90;;;;;;;14.48;nan;100140.91;4989227;28;20069;-75
2022/06/09 05:01:31;;;;;;;3.08;1.70;;;;;;;14.65;nan;100142.34;4972361;28;20496;-75
2022/06/09 05:03:57;;;;;;;2.50;1.45;;;;;;;14.80;nan;100146.81;4988030;28;20043;-75
2022/06/09 05:06:24;;;;;;;2.47;1.55;;;;;;;14.81;nan;100146.63;4988332;28;20046;-75
2022/06/09 05:08:52;;;;;;;2.53;1.35;;;;;;;14.88;nan;100137.91;4988517;28;20035;-75
2022/06/09 05:11:18;;;;;;;2.05;1.60;;;;;;;14.97;nan;100152.72;4990225;28;20104;-75
2022/06/09 05:13:43;;;;;;;2.60;1.58;;;;;;;15.00;nan;100153.19;4987579;28;20038;-75
2022/06/09 05:16:09;;;;;;;2.58;1.40;;;;;;;15.09;nan;100151.22;4971749;28;20027;-75
2022/06/09 05:18:36;;;;;;;2.45;1.55;;;;;;;15.18;nan;100159.88;4989377;28;20510;-75
2022/06/09 05:21:01;;;;;;;1.85;1.40;;;;;;;15.31;nan;100172.53;4988893;28;20169;-76
2022/06/09 05:23:28;;;;;;;3.15;1.40;;;;;;;15.47;nan;100172.25;4988430;28;20117;-75
2022/06/09 05:25:56;;;;;;;1.67;1.25;;;;;;;15.58;nan;100177.03;4988135;28;20038;-75
2022/06/09 05:28:23;;;;;;;2.17;1.38;;;;;;;15.70;nan;100182.69;4993431;28;20081;-75
2022/06/09 05:30:48;;;;;;;2.28;1.20;;;;;;;15.81;nan;100186.69;4988537;28;20112;-76
2022/06/09 05:33:14;;;;;;;1.73;1.15;;;;;;;15.92;nan;100186.97;4988535;28;20034;-76
2022/06/09 05:35:40;;;;;;;2.33;1.08;;;;;;;16.06;nan;100181.72;4989956;28;20389;-75
2022/06/09 05:46:18;;;;;;;2.40;1.67;;;;;;;16.05;nan;100204.09;4987720;28;19943;-76
2022/06/09 05:48:45;;;;;;;5.50;2.38;;;;;;;15.96;nan;100199.91;4988098;28;20042;-75
2022/06/09 05:51:12;;;;;;;3.65;2.17;;;;;;;15.97;nan;100204.22;4989054;28;20129;-76
2022/06/09 05:53:37;;;;;;;5.75;2.00;;;;;;;15.96;nan;100215.91;4989348;28;20089;-75
2022/06/09 05:56:05;;;;;;;4.07;1.70;;;;;;;15.91;nan;100211.97;4988181;28;20038;-76
2022/06/09 05:58:30;;;;;;;2.17;1.10;;;;;;;15.88;nan;100223.03;4988678;28;20030;-76
2022/06/09 06:00:56;;;;;;;2.40;1.40;;;;;;;15.79;nan;100221.53;4989139;28;20038;-76
2022/06/09 06:03:21;;;;;;;3.55;1.42;;;;;;;15.68;nan;100219.34;4989539;28;20113;-76
2022/06/09 06:08:31;;;;;;;4.53;1.35;;;;;;;15.77;nan;100233.41;4987675;28;20049;-76
2022/06/09 06:10:56;;;;;;;6.57;1.60;;;;;;;15.92;nan;100231.47;4987188;28;20805;-76
2022/06/09 06:13:22;;;;;;;4.55;1.30;;;;;;;16.03;nan;100243.44;4988336;28;20030;-76
2022/06/09 06:15:47;;;;;;;2.97;1.05;;;;;;;16.17;nan;100242.53;4986986;28;20565;-76
2022/06/09 06:18:13;;;;;;;1.98;1.10;;;;;;;16.32;nan;100242.41;4988412;28;20062;-76
2022/06/09 06:20:38;;;;;;;3.03;1.20;;;;;;;16.37;nan;100252.50;4987210;28;20407;-76
2022/06/09 06:23:03;;;;;;;2.55;1.00;;;;;;;16.45;nan;100249.69;4988506;28;20210;-76
2022/06/09 06:25:29;;;;;;;3.30;1.35;;;;;;;16.57;nan;100248.09;4987890;28;20039;-76
2022/06/09 06:27:54;;;;;;;4.32;1.60;;;;;;;16.61;nan;100254.66;4991155;28;20034;-76
2022/06/09 06:30:21;;;;;;;2.78;1.13;;;;;;;16.53;nan;100254.84;4987949;28;20027;-76
2022/06/09 06:32:47;;;;;;;2.58;1.20;;;;;;;16.52;nan;100264.69;4969179;28;20245;-76
2022/06/09 06:35:13;;;;;;;3.22;1.08;;;;;;;16.60;nan;100265.56;4987947;28;20064;-76
2022/06/09 06:37:39;;;;;;;2.58;1.13;;;;;;;16.61;nan;100268.00;4986918;28;20034;-76
2022/06/09 06:40:05;;;;;;;4.93;1.40;;;;;;;16.70;nan;100277.50;4986149;28;20499;-76
2022/06/09 06:42:30;;;;;;;6.55;1.55;;;;;;;16.84;nan;100272.28;4992377;28;20518;-75
2022/06/09 06:44:56;;;;;;;3.97;1.45;;;;;;;16.94;nan;100278.88;4987395;28;20668;-76
2022/06/09 06:47:21;;;;;;;2.75;1.10;;;;;;;17.02;nan;100288.59;4988469;28;20420;-76
2022/06/09 06:49:47;;;;;;;3.15;1.17;;;;;;;17.08;nan;100284.28;4979307;28;20526;-76
2022/06/09 06:52:12;;;;;;;4.07;1.27;;;;;;;17.10;nan;100290.25;4986974;28;20049;-76
2022/06/09 06:54:37;;;;;;;3.00;1.15;;;;;;;17.15;nan;100293.13;4987973;28;20042;-76
2022/06/09 06:57:05;;;;;;;4.45;1.00;;;;;;;17.45;nan;100300.81;4989079;28;20046;-76
2022/06/09 06:59:33;;;;;;;4.75;1.13;;;;;;;17.72;nan;100305.19;4986267;28;20080;-76
2022/06/09 07:01:59;;;;;;;4.35;1.33;;;;;;;17.78;nan;100300.88;4987705;28;20042;-76
2022/06/09 07:04:25;;;;;;;4.93;1.30;;;;;;;17.78;nan;100311.56;4987238;28;20048;-76
2022/06/09 07:06:50;;;;;;;5.30;1.50;;;;;;;17.84;nan;100308.13;4987235;28;20508;-76
2022/06/09 07:09:15;;;;;;;3.63;1.27;;;;;;;17.91;nan;100306.28;4987126;28;20049;-76
2022/06/09 07:11:43;;;;;;;3.42;1.02;;;;;;;17.93;nan;100306.88;4987677;28;20081;-76
2022/06/09 07:14:09;;;;;;;4.88;1.25;;;;;;;18.14;nan;100321.06;4983562;28;20042;-75
2022/06/09 07:16:34;;;;;;;4.28;1.30;;;;;;;18.48;nan;100316.53;4987732;28;20061;-76
2022/06/09 07:18:59;;;;;;;4.22;1.05;;;;;;;18.65;nan;100323.06;4987828;28;21452;-76
2022/06/09 07:21:25;;;;;;;2.97;1.10;;;;;;;18.82;nan;100326.97;4986806;28;20511;-76
2022/06/09 07:23:50;;;;;;;3.03;0.90;;;;;;;18.99;nan;100334.53;4987184;28;20133;-76
2022/06/09 07:26:16;;;;;;;2.50;0.82;;;;;;;19.00;nan;100334.34;4990730;28;20041;-76
2022/06/09 07:28:41;;;;;;;3.50;1.10;;;;;;;19.01;nan;100343.19;5002173;28;20064;-76
2022/06/09 07:31:07;;;;;;;2.30;0.95;;;;;;;18.97;nan;100336.59;4992866;28;20077;-76
2022/06/09 07:33:35;;;;;;;2.38;0.90;;;;;;;19.07;nan;100342.38;4989483;28;20034;-76
2022/06/09 07:36:04;;;;;;;5.47;1.40;;;;;;;19.04;nan;100340.09;4998098;28;20041;-76
2022/06/09 07:38:30;;;;;;;3.80;1.23;;;;;;;18.97;nan;100345.47;4992400;28;20034;-76
2022/06/09 07:40:56;;;;;;;4.97;1.20;;;;;;;18.83;nan;100344.72;4994590;28;20137;-76
2022/06/09 07:43:21;;;;;;;4.15;1.38;;;;;;;18.64;nan;100350.91;4992564;28;20031;-76
2022/06/09 07:45:48;;;;;;;3.67;1.15;;;;;;;18.55;nan;100354.84;4992992;28;20050;-76
2022/06/09 07:48:14;;;;;;;4.60;1.13;;;;;;;18.56;nan;100351.09;4999812;28;20030;-76
2022/06/09 07:50:40;;;;;;;4.40;1.20;;;;;;;18.67;nan;100353.16;4992096;28;20080;-75
2022/06/09 07:53:06;;;;;;;2.28;1.05;;;;;;;18.68;nan;100344.06;4990809;28;20041;-76
2022/06/09 07:55:32;;;;;;;2.97;0.95;;;;;;;18.82;nan;100350.25;4992684;28;20507;-75
2022/06/09 07:57:58;;;;;;;2.92;1.00;;;;;;;18.85;nan;100353.34;4993027;28;20510;-76
2022/06/09 08:00:24;;;;;;;;;;;;;;;18.89;nan;100351.88;4992733;28;20026;-73
2022/06/09 08:02:50;;;;;;;3.70;1.30;;;;;;;18.81;nan;100352.13;4990402;28;19968;-75
2022/06/09 08:05:19;;;;;;;3.28;1.20;;;;;;;18.69;nan;100351.09;4990585;28;20050;-76
2022/06/09 08:07:44;;;;;;;4.13;1.38;;;;;;;18.61;nan;100345.94;4992296;28;20117;-76
2022/06/09 08:10:14;;;;;;;4.43;1.40;;;;;;;18.64;nan;100350.91;4974474;28;20035;-76
2022/06/09 08:12:40;;;;;;;2.40;1.10;;;;;;;18.88;nan;100347.56;4992218;28;20142;-76
2022/06/09 08:15:06;;;;;;;2.25;1.27;;;;;;;18.98;nan;100352.47;4995267;28;20360;-76
2022/06/09 08:17:32;;;;;;;2.95;1.20;;;;;;;19.19;nan;100356.75;4997282;28;20030;-76
2022/06/09 08:19:57;;;;;;;5.07;1.50;;;;;;;19.50;nan;100355.16;4974646;28;20037;-76
2022/06/09 08:22:22;;;;;;;3.60;1.50;;;;;;;19.63;nan;100362.28;4991392;28;20031;-75
2022/06/09 08:24:48;;;;;;;2.95;1.30;;;;;;;19.52;nan;100367.31;4990756;28;20038;-76
2022/06/09 08:27:14;;;;;;;3.95;1.23;;;;;;;19.52;nan;100364.63;4993167;28;20419;-76
2022/06/09 08:29:39;;;;;;;4.43;1.20;;;;;;;19.41;nan;100367.16;4992782;28;20022;-75
2022/06/09 08:32:05;;;;;;;2.85;1.10;;;;;;;19.47;nan;100375.19;4970802;28;20091;-76
2022/06/09 08:34:30;;;;;;;3.47;1.15;;;;;;;19.67;nan;100372.38;4989840;28;20056;-76
2022/06/09 08:36:55;;;;;;;3.47;1.00;;;;;;;19.66;nan;100380.63;4993408;28;20065;-75
2022/06/09 08:39:21;;;;;;;3.78;1.05;;;;;;;19.46;nan;100388.78;4991993;28;20031;-75
2022/06/09 08:42:07;;;;;;;4.45;1.30;;;;;;;19.20;nan;100387.88;4996816;28;20396;-75
2022/06/09 08:45:02;;;;;;;3.83;1.20;;;;;;;19.02;nan;100385.03;4991463;28;20110;-75
2022/06/09 08:47:43;;;;;;;2.63;1.10;;;;;;;18.84;nan;100399.91;4974233;28;20061;-75
2022/06/09 08:50:12;;;;;;;4.05;1.30;;;;;;;18.83;nan;100400.97;4996827;28;20121;-75
2022/06/09 08:53:15;;;;;;;3.45;1.38;;;;;;;18.88;nan;100403.03;4991469;28;20030;-75
2022/06/09 08:55:48;;;;;;;4.07;1.02;;;;;;;18.89;nan;100400.13;4989295;28;20049;-75
2022/06/09 08:58:28;;;;;;;4.13;1.40;;;;;;;18.85;nan;100406.94;4971926;28;20039;-75
2022/06/09 09:01:10;;;;;;;4.55;1.15;;;;;;;18.80;nan;100404.03;4988188;28;20062;-75
2022/06/09 09:03:40;;;;;;;2.90;1.33;;;;;;;18.75;nan;100403.00;4986029;28;20061;-75
2022/06/09 09:06:17;;;;;;;4.25;1.42;;;;;;;18.73;nan;100403.19;4987289;28;20030;-75
2022/06/09 09:08:42;;;;;;;3.28;1.20;;;;;;;18.64;nan;100410.66;4989920;28;20092;-76
2022/06/09 09:11:17;;;;;;;3.85;1.33;;;;;;;18.63;nan;100416.19;4989735;28;20274;-75
2022/06/09 09:14:01;;;;;;;3.53;1.23;;;;;;;18.60;nan;100412.09;4990805;28;20034;-75
2022/06/09 09:16:59;;;;;;;3.47;1.40;;;;;;;18.58;nan;100418.69;4989473;28;20030;-75
2022/06/09 09:19:51;;;;;;;5.10;1.42;;;;;;;18.43;nan;100419.72;4988573;28;20394;-75
2022/06/09 09:22:29;;;;;;;6.63;1.70;;;;;;;18.34;nan;100423.63;4986178;28;20038;-77
2022/06/09 09:25:06;;;;;;;4.88;1.17;;;;;;;18.31;nan;100418.69;4988430;28;20026;-76
2022/06/09 09:27:48;;;;;;;3.40;1.30;;;;;;;18.43;nan;100426.94;4986022;28;20459;-76
2022/06/09 09:30:27;;;;;;;6.55;1.42;;;;;;;18.50;nan;100427.75;4987346;28;20575;-76
2022/06/09 09:32:55;;;;;;;4.45;1.40;;;;;;;18.53;nan;100431.88;4987781;28;20121;-74
2022/06/09 09:35:30;;;;;;;5.47;1.30;;;;;;;18.54;nan;100426.28;4993100;28;20030;-75
2022/06/09 09:37:58;;;;;;;2.97;1.25;;;;;;;18.59;nan;100428.34;4987448;28;20038;-74
2022/06/09 09:40:28;;;;;;;4.20;1.40;;;;;;;18.74;nan;100425.47;4989028;28;20471;-74
2022/06/09 09:42:57;;;;;;;4.07;1.20;;;;;;;18.93;nan;100431.88;4984395;28;20166;-74
2022/06/09 09:45:42;;;;;;;3.58;1.30;;;;;;;19.28;nan;100441.25;4980893;28;20279;-75
2022/06/09 09:48:16;;;;;;;4.97;1.70;;;;;;;19.57;nan;100439.09;4987766;28;20499;-74
2022/06/09 09:50:48;;;;;;;4.45;1.40;;;;;;;19.92;nan;100446.78;4981360;28;20518;-74
2022/06/09 09:53:23;;;;;;;3.72;1.45;;;;;;;20.74;nan;100450.34;4986667;28;20133;-75
2022/06/09 09:55:58;;;;;;;5.05;1.20;;;;;;;21.82;nan;100448.94;4987826;28;20104;-75
2022/06/09 09:58:38;;;;;;;3.58;1.48;;;;;;;21.95;nan;100449.81;4987615;28;20409;-75
2022/06/09 10:01:25;;;;;;;3.03;1.20;;;;;;;21.90;nan;100442.41;4967720;28;20125;-75
2022/06/09 10:09:53;;;;;;;3.65;1.30;;;;;;;23.12;nan;100446.50;4985382;28;20128;-75
2022/06/09 10:12:30;;;;;;;2.78;1.13;;;;;;;23.12;nan;100457.28;4986536;28;20041;-74
2022/06/09 10:15:11;;;;;;;3.83;1.15;;;;;;;23.03;nan;100459.53;4988709;28;20059;-75
2022/06/09 10:17:54;;;;;;;5.35;1.42;;;;;;;22.71;nan;100455.50;4983334;28;20057;-74
2022/06/09 10:20:20;;;;;;;4.00;1.20;;;;;;;22.31;nan;100454.28;4987043;28;20459;-74
2022/06/09 10:23:01;;;;;;;2.40;1.00;;;;;;;22.29;nan;100461.78;4985238;28;20042;-74
2022/06/09 10:25:59;;;;;;;2.63;0.90;;;;;;;22.14;nan;100461.34;4982535;28;20042;-74
2022/06/09 10:29:02;;;;;;;4.00;1.42;;;;;;;22.01;nan;100456.97;4986044;28;20061;-74
2022/06/09 10:31:55;;;;;;;3.72;1.55;;;;;;;21.78;nan;100458.50;4972597;28;20034;-75
2022/06/09 10:34:48;;;;;;;5.25;2.10;;;;;;;21.49;nan;100460.13;4987363;28;20069;-75
2022/06/09 10:37:42;;;;;;;4.35;2.05;;;;;;;21.75;nan;100472.44;4986292;28;20034;-75
2022/06/09 10:40:13;;;;;;;5.13;2.25;;;;;;;22.14;nan;100469.41;4987328;28;20038;-75
2022/06/09 10:43:01;;;;;;;2.95;1.60;;;;;;;22.52;nan;100463.69;4988618;28;20088;-75
2022/06/09 10:45:49;;;;;;;4.05;1.30;;;;;;;22.68;nan;100473.78;4989689;28;20042;-75
2022/06/09 10:57:27;;;;;;;4.20;1.45;;;;;;;21.11;nan;100476.47;4986076;28;20428;-74
2022/06/09 11:00:13;;;;;;;2.60;1.13;;;;;;;20.66;nan;100474.78;4986109;28;20479;-74
2022/06/09 11:02:43;;;;;;;2.95;1.00;;;;;;;20.63;nan;100482.47;4989861;28;20050;-74
2022/06/09 11:05:13;;;;;;;4.72;1.80;;;;;;;21.55;nan;100488.03;4992034;28;20042;-74
2022/06/09 11:07:53;;;;;;;2.50;1.10;;;;;;;22.50;nan;100479.28;4991443;28;20035;-75
2022/06/09 11:10:26;;;;;;;3.90;0.90;;;;;;;23.19;nan;100471.47;4988925;28;20039;-75
2022/06/09 11:13:28;;;;;;;4.00;1.40;;;;;;;23.64;nan;100475.34;4991515;28;20569;-75
2022/06/09 11:16:10;;;;;;;4.38;1.48;;;;;;;23.99;nan;100471.72;4986600;28;20062;-75
2022/06/09 11:18:41;;;;;;;4.13;1.17;;;;;;;24.45;nan;100467.94;4999776;28;20034;-75
2022/06/09 11:21:28;;;;;;;3.65;1.05;;;;;;;24.41;nan;100483.03;4992485;28;20038;-75
2022/06/09 11:24:29;;;;;;;4.05;1.40;;;;;;;23.56;nan;100478.44;4990256;28;20474;-75
2022/06/09 11:27:13;;;;;;;2.83;0.90;;;;;;;22.71;nan;100487.84;4989926;28;20145;-74
2022/06/09 11:30:16;;;;;;;3.55;1.10;;;;;;;20.85;nan;100494.47;4987233;28;20153;-74
2022/06/09 11:33:00;;;;;;;3.08;1.10;;;;;;;20.18;nan;100495.97;4990478;28;20466;-74
2022/06/09 11:35:40;;;;;;;2.60;1.00;;;;;;;19.65;nan;100497.84;4975149;28;20031;-74
2022/06/09 11:38:27;;;;;;;2.17;0.90;;;;;;;19.32;nan;100492.59;4989552;28;20042;-74
2022/06/09 11:41:25;;;;;;;2.63;1.10;;;;;;;19.09;nan;100485.84;4989148;28;20395;-74
2022/06/09 11:44:03;;;;;;;2.25;0.98;;;;;;;19.20;nan;100487.03;4986970;28;20042;-74
2022/06/09 11:46:32;;;;;;;2.10;0.80;;;;;;;19.41;nan;100482.47;4990301;28;20137;-74
2022/06/09 11:49:01;;;;;;;2.40;0.90;;;;;;;19.64;nan;100488.16;4991843;28;20042;-74
2022/06/09 11:51:29;;;;;;;2.78;0.98;;;;;;;21.88;nan;100484.91;4990434;28;20113;-75
2022/06/09 11:53:59;;;;;;;3.20;0.90;;;;;;;25.17;nan;100488.84;4988999;28;20034;-75
2022/06/09 11:56:33;;;;;;;1.98;0.80;;;;;;;27.14;nan;100485.09;4988870;28;20398;-75
2022/06/09 11:59:00;;;;;;;3.67;1.10;;;;;;;27.28;nan;100489.00;4990296;28;20045;-75
2022/06/09 12:01:32;;;;;;;4.00;1.23;;;;;;;28.65;nan;100481.47;4990604;28;20044;-75
2022/06/09 12:04:34;;;;;;;2.80;0.88;;;;;;;30.14;nan;100493.50;4988996;28;20041;-75
2022/06/09 12:07:21;;;;;;;3.78;0.80;;;;;;;31.94;nan;100478.78;4988348;28;20567;-75
2022/06/09 12:10:05;;;;;;;2.95;1.00;;;;;;;31.95;nan;100484.00;4991018;28;20448;-75
2022/06/09 12:12:39;;;;;;;3.35;0.80;;;;;;;29.49;nan;100492.75;4988941;28;20117;-75
2022/06/09 12:15:28;;;;;;;1.67;0.85;;;;;;;28.22;nan;100489.06;4989216;28;20038;-75
2022/06/09 12:17:56;;;;;;;3.95;1.38;;;;;;;27.64;nan;100487.25;4983347;28;20429;-75
2022/06/09 12:20:43;;;;;;;2.65;0.80;;;;;;;26.76;nan;100487.84;4988521;28;20302;-75
2022/06/09 12:23:08;;;;;;;4.45;1.10;;;;;;;26.21;nan;100494.41;4988937;28;20050;-75
2022/06/09 12:25:36;;;;;;;2.13;1.00;;;;;;;26.66;nan;100494.00;4991915;28;20034;-74
2022/06/09 12:28:40;;;;;;;2.10;0.80;;;;;;;26.77;nan;100494.94;4991681;28;20380;-75